Ottawa Gatineau Airport
CYND : rendu visible

Aérodrome :











RETROUVEZ-NOUS SUR...

 
LOGIN :

S'inscrire | Disclaimer

   EN    FR    IT 

 









Légende :    VFR   VFR Marginal   IFR   IFR Intensif   IFR Très Intensif
Visi : 
Plafond : 
>= 8 km
>= 3000ft
5 à 8 km
1000 à 3000 ft
1500m à 5 km
500 à 1000 ft
800 à 1500m
200 à 500 ft
< 800m
< 200 ft
Symboles :   Orages  Brouillard  Fortes neiges  Fortes précipitations  Vent > 20 kt






- Altitude de l'aérodrome : 211 ft
- Code IATA : YND


CYND - Ottawa Gatineau

DERNIER METAR :
  • 312000Z 30010G15KT 15SM BKN060 BKN089 13/M00 A3012 RMK SC6AC1 AC TR SLP204

METARs EXPIRÉS :
  • 311900Z 28010KT 260V330 15SM BKN060 BKN082 12/01 A3013 RMK SC6AC1 AC TR SLP206
  • 311800Z 30005G17KT 260V330 15SM BKN055 BKN083 12/M01 A3014 RMK CU6AC1 SLP208

TAF TAF CYND
Valide du 31 à 18h jusqu'au 01 à 01h UTC


311738Z 3118/0101 30010KT P6SM BKN050
TEMPO 3118/0101 P6SM -SHRA BKN030
BECMG 3123/0101 30007KT RMK NXT FCST WILL BE ISSUED AT 011245Z
FIR CZUL / Amérique du Nord



MET'MAP, la Météo Aéronautique d'un coup d'oeil ! - Copyright ORBIFLY Décembre 2007 - Disclaimer

ORBIFLY MET'MAP TEAM :

Programmation & Développement : Alexandra Zaïnal
Sur une idée originale de : Baudouin d'Aumeries
Assistance à la programmation : Marc-Olivier Méhu
Soutien technique & logistique : Manuel Goepfert

Contact : metmap@orbifly.com




SOURCES & CREDITS :

   NOAA       Earth
Advisory